Time;durP1;ratioP1;P1;durP2;ratioP2;P2;SDS_P1;SDS_P2;PMS_P1;PMS_P2;Temp;Humidity;BMP_temperature;BMP_pressure;BME280_temperature;BME280_humidity;BME280_pressure;Samples;Min_cycle;Max_cycle;Signal;HPM_P1;HPM_P2
2022/02/28 00:10:00;;;;;;;80.83;32.20;;;;;;;-2.75;85.12;102633.63;1705329;82;21086;-68
2022/02/28 00:12:26;;;;;;;90.67;33.70;;;;;;;-2.75;85.10;102630.57;1685024;85;20960;-68
2022/02/28 00:14:52;;;;;;;80.30;31.70;;;;;;;-2.76;85.08;102627.53;1685232;85;21173;-68
2022/02/28 00:17:18;;;;;;;91.55;38.00;;;;;;;-2.77;85.07;102629.72;1685056;85;21016;-68
2022/02/28 00:19:44;;;;;;;125.33;48.00;;;;;;;-2.80;85.11;102623.70;1685033;85;25767;-68
2022/02/28 00:22:10;;;;;;;105.95;38.30;;;;;;;-2.79;85.10;102622.38;1694930;84;21055;-68
2022/02/28 00:24:36;;;;;;;92.10;34.80;;;;;;;-2.75;85.10;102622.73;1673205;84;21097;-68
2022/02/28 00:27:03;;;;;;;94.00;35.45;;;;;;;-2.75;85.07;102631.88;1673229;84;21205;-68
2022/02/28 00:29:29;;;;;;;93.10;35.20;;;;;;;-2.83;85.10;102627.24;1683461;84;21617;-68
2022/02/28 00:31:55;;;;;;;91.15;35.38;;;;;;;-2.83;85.10;102627.68;1683279;84;21483;-68
2022/02/28 00:34:21;;;;;;;107.32;37.63;;;;;;;-2.84;85.08;102620.73;1683457;85;21035;-68
2022/02/28 00:36:47;;;;;;;92.92;33.15;;;;;;;-2.85;85.09;102615.95;1683016;84;21022;-68
2022/02/28 00:39:13;;;;;;;93.07;37.90;;;;;;;-2.83;85.08;102615.94;1683231;85;21052;-68
2022/02/28 00:41:39;;;;;;;105.65;38.78;;;;;;;-2.81;85.09;102619.36;1683151;85;26670;-68
2022/02/28 00:44:05;;;;;;;101.90;37.38;;;;;;;-2.81;85.10;102616.75;1683018;84;25894;-68
2022/02/28 00:46:31;;;;;;;106.10;36.38;;;;;;;-2.79;85.12;102621.08;1683329;85;21023;-68
2022/02/28 00:48:57;;;;;;;105.03;37.45;;;;;;;-2.84;85.18;102617.68;1683360;85;20919;-68
2022/02/28 00:51:23;;;;;;;104.45;39.83;;;;;;;-2.88;85.19;102617.32;1683313;84;21051;-68
2022/02/28 00:53:49;;;;;;;101.82;36.65;;;;;;;-2.88;85.21;102622.98;1683339;84;21019;-69
2022/02/28 00:56:15;;;;;;;113.80;39.38;;;;;;;-2.88;85.22;102622.98;1683347;84;25862;-68
2022/02/28 00:58:41;;;;;;;101.87;38.98;;;;;;;-2.90;85.21;102623.03;1683565;85;21015;-68
2022/02/28 01:01:07;;;;;;;101.47;37.05;;;;;;;-2.92;85.23;102630.02;1683195;84;20939;-68
2022/02/28 01:03:33;;;;;;;106.25;36.65;;;;;;;-2.94;85.22;102630.50;1683250;85;21186;-69
2022/02/28 01:05:59;;;;;;;105.10;39.05;;;;;;;-2.97;85.21;102625.78;1683202;84;26742;-68
2022/02/28 01:08:25;;;;;;;90.40;36.50;;;;;;;-3.04;85.21;102623.30;1683338;83;25836;-68
2022/02/28 01:10:51;;;;;;;89.60;37.15;;;;;;;-3.09;85.24;102621.20;1683305;84;21102;-68
2022/02/28 01:13:17;;;;;;;107.10;38.55;;;;;;;-3.10;85.22;102618.64;1683274;85;21668;-68
2022/02/28 01:15:43;;;;;;;92.55;35.75;;;;;;;-3.13;85.20;102618.70;1682985;85;21816;-68
2022/02/28 01:18:10;;;;;;;88.12;35.38;;;;;;;-3.18;85.19;102623.13;1682851;85;21095;-68
2022/02/28 01:20:36;;;;;;;73.57;30.27;;;;;;;-3.23;85.17;102618.43;1683287;85;21055;-69
2022/02/28 01:23:03;;;;;;;90.83;35.75;;;;;;;-3.25;85.16;102623.70;1683141;85;21559;-68
2022/02/28 01:25:29;;;;;;;87.27;32.33;;;;;;;-3.31;85.18;102632.08;1670035;83;21082;-69
2022/02/28 01:27:55;;;;;;;94.95;37.05;;;;;;;-3.41;85.19;102622.23;1653332;86;21987;-68
2022/02/28 01:30:21;;;;;;;98.12;36.50;;;;;;;-3.41;85.21;102618.79;1654387;86;21054;-68
2022/02/28 01:32:47;;;;;;;89.30;35.17;;;;;;;-3.44;85.24;102621.42;1654048;86;21030;-68
2022/02/28 01:35:13;;;;;;;76.20;33.28;;;;;;;-3.44;85.25;102611.86;1654071;86;21053;-69
2022/02/28 01:37:39;;;;;;;98.22;37.55;;;;;;;-3.39;85.25;102614.39;1654250;86;21093;-68
2022/02/28 01:40:07;;;;;;;87.45;34.30;;;;;;;-3.36;85.20;102604.77;1654196;86;21172;-68
2022/02/28 01:42:33;;;;;;;82.92;31.33;;;;;;;-3.38;85.20;102608.30;1654231;86;21026;-68
2022/02/28 01:44:59;;;;;;;103.85;35.78;;;;;;;-3.42;85.22;102599.67;1654266;86;21068;-68
2022/02/28 01:47:25;;;;;;;95.95;33.02;;;;;;;-3.43;85.24;102597.94;1654318;86;20911;-68
2022/02/28 01:49:51;;;;;;;100.47;38.00;;;;;;;-3.42;85.26;102604.88;1654334;86;21061;-69
2022/02/28 01:52:17;;;;;;;90.07;34.75;;;;;;;-3.44;85.26;102592.73;1654358;86;21712;-68
2022/02/28 01:54:46;;;;;;;105.75;36.68;;;;;;;-3.42;85.27;102593.14;1654240;86;21026;-69
2022/02/28 01:57:13;;;;;;;97.90;36.10;;;;;;;-3.41;85.26;102588.80;1654404;86;21588;-68
2022/02/28 01:59:39;;;;;;;113.65;39.35;;;;;;;-3.36;85.26;102584.34;1654275;86;21073;-69
2022/02/28 02:02:05;;;;;;;105.22;38.38;;;;;;;-3.32;85.27;102584.27;1654263;86;21034;-69
2022/02/28 02:04:31;;;;;;;100.70;36.65;;;;;;;-3.28;85.25;102586.37;1654221;86;21807;-68
2022/02/28 02:06:57;;;;;;;107.85;37.25;;;;;;;-3.26;85.24;102575.45;1653750;86;21023;-68
2022/02/28 02:09:23;;;;;;;102.38;37.30;;;;;;;-3.24;85.26;102572.39;1654141;86;25826;-68
2022/02/28 02:11:50;;;;;;;109.65;40.28;;;;;;;-3.24;85.24;102565.86;1654147;86;21046;-68
2022/02/28 02:14:16;;;;;;;115.25;41.42;;;;;;;-3.17;85.21;102571.38;1654354;86;21057;-68
2022/02/28 02:16:42;;;;;;;136.00;48.52;;;;;;;-3.11;85.23;102569.95;1654420;86;21217;-68
2022/02/28 02:19:09;;;;;;;121.17;42.58;;;;;;;-3.05;85.24;102571.12;1654245;86;21073;-69
2022/02/28 02:21:35;;;;;;;105.10;37.75;;;;;;;-3.00;85.24;102569.30;1654199;86;21029;-69
2022/02/28 02:24:01;;;;;;;99.45;42.30;;;;;;;-2.98;85.24;102566.20;1654266;86;21010;-68
2022/02/28 02:26:27;;;;;;;105.27;40.43;;;;;;;-2.98;85.28;102560.11;1654586;86;21014;-68
2022/02/28 02:28:53;;;;;;;118.67;45.33;;;;;;;-2.95;85.27;102566.58;1654366;86;21136;-68
2022/02/28 02:31:19;;;;;;;111.85;39.20;;;;;;;-2.95;85.32;102562.22;1654202;86;21102;-68
2022/02/28 02:33:45;;;;;;;86.02;34.53;;;;;;;-2.95;85.28;102563.96;1654332;85;21018;-68
2022/02/28 02:36:12;;;;;;;69.37;32.38;;;;;;;-2.96;85.30;102566.18;1654185;86;21029;-68
2022/02/28 02:38:38;;;;;;;65.72;28.95;;;;;;;-2.99;85.29;102561.86;1654426;86;21030;-69
2022/02/28 02:41:07;;;;;;;66.82;30.15;;;;;;;-2.97;85.31;102563.14;1654247;86;21096;-69
2022/02/28 02:43:36;;;;;;;64.22;28.25;;;;;;;-2.98;85.28;102556.20;1654355;86;21066;-68
2022/02/28 02:46:03;;;;;;;66.17;30.75;;;;;;;-2.99;85.30;102561.03;1654247;86;21074;-69
2022/02/28 02:48:29;;;;;;;58.58;27.55;;;;;;;-3.00;85.30;102556.25;1654305;86;21537;-69
2022/02/28 02:50:55;;;;;;;71.45;30.48;;;;;;;-2.98;85.28;102555.76;1654298;86;21582;-69
2022/02/28 02:53:21;;;;;;;71.82;30.37;;;;;;;-2.97;85.27;102553.57;1654400;86;21062;-69
2022/02/28 02:55:47;;;;;;;76.80;32.28;;;;;;;-2.90;85.27;102549.95;1654315;86;21019;-69
2022/02/28 02:58:14;;;;;;;80.40;31.07;;;;;;;-2.88;85.29;102545.54;1654081;86;21026;-69
2022/02/28 03:00:46;;;;;;;75.78;31.27;;;;;;;-2.89;85.28;102545.15;1654461;86;21031;-69
2022/02/28 03:03:16;;;;;;;71.87;32.30;;;;;;;-2.88;85.28;102542.06;1654235;86;21503;-69
2022/02/28 03:05:42;;;;;;;75.78;30.55;;;;;;;-2.91;85.30;102545.61;1654431;86;21565;-69
2022/02/28 03:08:08;;;;;;;69.07;30.08;;;;;;;-2.88;85.31;102547.28;1653825;86;21515;-69
2022/02/28 03:10:34;;;;;;;68.22;28.60;;;;;;;-2.87;85.32;102548.57;1663826;86;21570;-69
2022/02/28 03:13:00;;;;;;;69.00;31.00;;;;;;;-2.85;85.32;102546.77;1658472;85;21037;-69
2022/02/28 03:15:26;;;;;;;61.80;27.93;;;;;;;-2.81;85.32;102547.12;1657322;86;21002;-69
2022/02/28 03:17:52;;;;;;;66.25;29.23;;;;;;;-2.80;85.32;102547.55;1657626;86;21022;-69
2022/02/28 03:20:18;;;;;;;62.00;27.22;;;;;;;-2.79;85.31;102550.59;1657278;86;26689;-69
2022/02/28 03:22:44;;;;;;;62.88;28.23;;;;;;;-2.83;85.30;102548.92;1657172;86;25969;-69
2022/02/28 03:25:10;;;;;;;65.05;26.50;;;;;;;-2.85;85.30;102555.91;1657144;86;21066;-69
2022/02/28 03:27:36;;;;;;;57.08;26.65;;;;;;;-2.85;85.32;102548.08;1657727;86;21050;-69
2022/02/28 03:30:05;;;;;;;68.52;28.15;;;;;;;-2.83;85.31;102550.67;1657349;86;21147;-69
2022/02/28 03:32:31;;;;;;;63.58;27.67;;;;;;;-2.81;85.30;102554.09;1657308;86;21504;-69
2022/02/28 03:34:57;;;;;;;67.08;29.27;;;;;;;-2.81;85.30;102551.05;1657195;86;21034;-69
2022/02/28 03:37:23;;;;;;;70.42;29.85;;;;;;;-2.77;85.28;102541.39;1657311;86;21038;-69
2022/02/28 03:39:49;;;;;;;63.33;29.57;;;;;;;-2.75;85.29;102543.55;1657465;86;21073;-68
2022/02/28 03:42:15;;;;;;;66.80;30.27;;;;;;;-2.71;85.29;102555.17;1657261;86;21062;-69
2022/02/28 03:44:41;;;;;;;63.10;28.73;;;;;;;-2.70;85.31;102559.52;1657330;86;21007;-69
2022/02/28 03:47:07;;;;;;;67.75;28.23;;;;;;;-2.70;85.31;102560.82;1657323;86;21502;-69
2022/02/28 03:49:33;;;;;;;61.00;26.37;;;;;;;-2.70;85.28;102563.44;1657264;86;21046;-69
2022/02/28 03:51:59;;;;;;;73.17;31.70;;;;;;;-2.69;85.31;102565.16;1657356;86;21034;-69
2022/02/28 03:54:25;;;;;;;70.05;29.10;;;;;;;-2.71;85.27;102555.17;1657370;85;21162;-69
2022/02/28 03:56:51;;;;;;;73.22;32.00;;;;;;;-2.73;85.28;102549.58;1657321;86;21015;-69
2022/02/28 03:59:17;;;;;;;74.90;29.60;;;;;;;-2.74;85.32;102542.19;1657179;86;21018;-69
2022/02/28 04:01:43;;;;;;;75.28;32.10;;;;;;;-2.72;85.30;102544.34;1657308;86;21018;-69
2022/02/28 04:04:10;;;;;;;75.42;31.37;;;;;;;-2.68;85.33;102547.75;1656813;86;21120;-69
2022/02/28 04:06:36;;;;;;;78.33;33.65;;;;;;;-2.68;85.34;102546.00;1657186;86;21193;-69
2022/02/28 04:09:04;;;;;;;77.47;33.25;;;;;;;-2.64;85.35;102537.18;1657072;86;21521;-70
2022/02/28 04:11:31;;;;;;;78.87;34.05;;;;;;;-2.62;85.34;102532.80;1660408;86;21018;-69
2022/02/28 04:13:57;;;;;;;72.12;31.93;;;;;;;-2.61;85.36;102542.36;1653916;86;21109;-69
2022/02/28 04:16:23;;;;;;;78.17;31.65;;;;;;;-2.60;85.33;102542.75;1654221;86;21022;-69
2022/02/28 04:18:49;;;;;;;75.35;32.90;;;;;;;-2.58;85.35;102555.34;1653956;85;21253;-69
2022/02/28 04:21:15;;;;;;;73.25;30.80;;;;;;;-2.53;85.32;102558.70;1653550;86;21003;-69
2022/02/28 04:23:42;;;;;;;71.72;31.33;;;;;;;-2.52;85.31;102557.81;1654029;86;21053;-69
2022/02/28 04:26:08;;;;;;;74.62;31.75;;;;;;;-2.52;85.29;102564.34;1654166;86;21490;-69
2022/02/28 04:28:34;;;;;;;65.17;30.48;;;;;;;-2.53;85.28;102561.31;1654146;86;21504;-69
2022/02/28 04:31:00;;;;;;;69.37;31.70;;;;;;;-2.53;85.27;102565.23;1654209;86;21800;-70
2022/02/28 04:33:26;;;;;;;72.85;31.75;;;;;;;-2.53;85.27;102565.23;1654136;86;21526;-69
2022/02/28 04:35:52;;;;;;;76.07;34.30;;;;;;;-2.52;85.26;102563.04;1654085;86;25956;-69
2022/02/28 04:38:20;;;;;;;75.83;32.88;;;;;;;-2.48;85.27;102564.27;1654094;86;21034;-69
2022/02/28 04:40:46;;;;;;;76.45;34.65;;;;;;;-2.47;85.26;102559.47;1654067;86;21597;-69
2022/02/28 04:43:12;;;;;;;71.37;36.83;;;;;;;-2.48;85.27;102556.44;1654029;86;21586;-69
2022/02/28 04:45:38;;;;;;;93.33;40.17;;;;;;;-2.46;85.29;102550.28;1653972;86;21042;-69
2022/02/28 04:48:04;;;;;;;74.40;34.20;;;;;;;-2.39;85.30;102556.25;1654128;86;21081;-69
2022/02/28 04:50:30;;;;;;;81.08;35.43;;;;;;;-2.36;85.29;102559.66;1654234;86;21034;-69
2022/02/28 04:52:57;;;;;;;80.60;35.48;;;;;;;-2.31;85.29;102558.22;1654277;86;21086;-69
2022/02/28 04:55:23;;;;;;;74.25;32.67;;;;;;;-2.27;85.28;102554.65;1654284;86;21151;-69
2022/02/28 04:57:49;;;;;;;74.53;34.33;;;;;;;-2.26;85.28;102556.38;1654153;86;21022;-69
2022/02/28 05:00:15;;;;;;;78.70;31.68;;;;;;;-2.23;85.28;102557.61;1653845;86;21542;-69
2022/02/28 05:02:41;;;;;;;78.85;33.33;;;;;;;-2.23;85.28;102541.48;1653996;86;21561;-69
2022/02/28 05:05:08;;;;;;;77.32;33.63;;;;;;;-2.23;85.27;102548.02;1654063;86;21026;-69
2022/02/28 05:07:34;;;;;;;79.90;32.80;;;;;;;-2.22;85.27;102556.28;1654378;86;21066;-69
2022/02/28 05:10:00;;;;;;;81.10;34.45;;;;;;;-2.24;85.24;102546.73;1657293;86;26765;-69
2022/02/28 05:12:26;;;;;;;75.72;34.10;;;;;;;-2.23;85.23;102545.84;1666363;85;21006;-69
2022/02/28 05:14:52;;;;;;;81.53;35.13;;;;;;;-2.25;85.23;102551.57;1657580;86;21122;-69
2022/02/28 05:17:18;;;;;;;77.60;32.75;;;;;;;-2.23;85.23;102561.08;1656777;86;21022;-69
2022/02/28 05:19:44;;;;;;;83.65;38.53;;;;;;;-2.29;85.25;102559.92;1656954;86;21287;-69
2022/02/28 05:22:10;;;;;;;80.53;36.63;;;;;;;-2.32;85.26;102557.36;1657184;86;21066;-69
2022/02/28 05:24:36;;;;;;;83.37;35.90;;;;;;;-2.38;85.24;102557.50;1662261;83;21067;-69
2022/02/28 05:27:03;;;;;;;100.95;45.12;;;;;;;-2.39;85.20;102561.00;1685757;83;21006;-69
2022/02/28 05:29:29;;;;;;;94.77;41.95;;;;;;;-2.35;85.18;102567.02;1686495;85;21078;-69
2022/02/28 05:31:56;;;;;;;95.53;41.42;;;;;;;-2.36;85.18;102568.80;1686502;84;21150;-70
2022/02/28 05:34:22;;;;;;;101.75;41.95;;;;;;;-2.37;85.18;102566.20;1685968;85;21556;-70
2022/02/28 05:36:49;;;;;;;87.92;40.92;;;;;;;-2.38;85.17;102569.26;1686431;84;21047;-70
2022/02/28 05:39:15;;;;;;;99.10;42.23;;;;;;;-2.44;85.15;102569.84;1686350;84;21022;-70
2022/02/28 05:41:41;;;;;;;88.17;40.75;;;;;;;-2.46;85.15;102574.27;1686461;84;21075;-70
2022/02/28 05:44:07;;;;;;;93.47;43.42;;;;;;;-2.46;85.15;102571.65;1686549;85;21045;-70
2022/02/28 05:46:33;;;;;;;101.65;47.25;;;;;;;-2.47;85.12;102571.23;1686364;84;21046;-70
2022/02/28 05:48:59;;;;;;;120.53;61.00;;;;;;;-2.48;85.10;102579.95;1686550;85;21042;-70
2022/02/28 05:51:25;;;;;;;115.85;52.35;;;;;;;-2.45;85.09;102568.13;1686511;84;20888;-70
2022/02/28 05:53:53;;;;;;;105.35;48.15;;;;;;;-2.44;85.10;102572.45;1686701;85;21039;-70
2022/02/28 05:56:20;;;;;;;95.62;43.10;;;;;;;-2.43;85.10;102575.50;1686653;84;21819;-70
2022/02/28 05:58:46;;;;;;;98.40;42.27;;;;;;;-2.45;85.08;102575.52;1686349;84;21087;-70
2022/02/28 06:01:12;;;;;;;107.95;46.83;;;;;;;-2.43;85.09;102571.58;1686251;84;21075;-70
2022/02/28 06:03:38;;;;;;;130.65;57.08;;;;;;;-2.46;85.08;102571.65;1686686;85;20995;-70
2022/02/28 06:06:04;;;;;;;146.72;62.33;;;;;;;-2.46;85.07;102566.42;1686687;85;21046;-70
2022/02/28 06:08:30;;;;;;;110.78;45.65;;;;;;;-2.38;85.06;102572.31;1686548;84;21019;-70
2022/02/28 06:10:56;;;;;;;116.03;47.23;;;;;;;-2.34;85.02;102575.28;1684071;83;26613;-70
2022/02/28 06:13:22;;;;;;;99.52;44.48;;;;;;;-2.34;85.01;102577.45;1680619;85;21023;-70
2022/02/28 06:15:48;;;;;;;89.20;42.65;;;;;;;-2.33;85.01;102573.95;1680912;85;21071;-70
2022/02/28 06:18:14;;;;;;;111.05;46.20;;;;;;;-2.31;85.02;102579.13;1661160;85;20916;-70
2022/02/28 06:20:41;;;;;;;112.35;48.58;;;;;;;-2.30;85.02;102575.18;1710100;84;21535;-69
2022/02/28 06:23:14;;;;;;;108.67;50.28;;;;;;;-2.23;85.01;102571.98;1688784;83;21049;-70
2022/02/28 06:25:38;;;;;;;108.90;54.73;;;;;;;-2.17;84.98;102577.05;1672583;85;21002;-70
2022/02/28 06:28:04;;;;;;;110.63;53.00;;;;;;;-1.57;85.01;102576.88;1703062;82;21005;-69
2022/02/28 06:30:30;;;;;;;95.10;47.83;;;;;;;-1.00;84.73;102577.52;1702681;83;21500;-69
2022/02/28 06:32:56;;;;;;;97.82;44.88;;;;;;;-1.03;84.56;102572.37;1702542;84;21239;-69
2022/02/28 06:35:23;;;;;;;102.85;45.33;;;;;;;-1.10;84.56;102578.69;1702658;83;20873;-69
2022/02/28 06:37:49;;;;;;;90.77;39.45;;;;;;;-1.21;84.58;102576.36;1702819;83;21004;-70
2022/02/28 06:40:15;;;;;;;89.55;42.08;;;;;;;-1.23;84.63;102572.91;1702801;84;21003;-69
2022/02/28 06:42:41;;;;;;;83.58;36.70;;;;;;;-1.16;84.67;102579.69;1702695;83;21095;-69
2022/02/28 06:45:08;;;;;;;82.53;38.80;;;;;;;-1.03;84.68;102589.39;1702826;84;21067;-69
2022/02/28 06:47:34;;;;;;;83.20;40.05;;;;;;;-0.89;84.66;102589.87;1702207;84;21003;-70
2022/02/28 06:50:00;;;;;;;95.07;40.20;;;;;;;-0.75;84.67;102602.13;1702910;83;21047;-70
2022/02/28 06:52:26;;;;;;;110.05;47.80;;;;;;;-0.66;84.72;102596.61;1702222;84;21114;-70
2022/02/28 06:54:56;;;;;;;130.57;54.13;;;;;;;-0.59;84.74;102608.63;1702527;84;21054;-69
2022/02/28 06:57:23;;;;;;;96.02;44.67;;;;;;;-0.53;84.69;102608.91;1702737;83;21773;-70
2022/02/28 06:59:49;;;;;;;131.30;54.27;;;;;;;-0.52;84.69;102606.67;1702253;83;21078;-70
2022/02/28 07:02:15;;;;;;;122.90;53.42;;;;;;;-0.36;84.71;102609.72;1702788;83;21515;-70
2022/02/28 07:04:41;;;;;;;126.35;56.08;;;;;;;-0.17;84.68;102610.86;1702203;84;21676;-70
2022/02/28 07:07:07;;;;;;;109.05;52.20;;;;;;;0.03;84.69;102612.87;1702791;83;21543;-71
2022/02/28 07:09:33;;;;;;;117.93;52.30;;;;;;;0.19;84.67;102620.20;1702729;84;21047;-71
2022/02/28 07:11:59;;;;;;;120.62;57.50;;;;;;;0.30;84.71;102614.61;1696718;84;21581;-71
2022/02/28 07:14:25;;;;;;;123.70;59.30;;;;;;;0.36;84.70;102621.83;1702141;84;21511;-70
2022/02/28 07:16:51;;;;;;;122.85;56.53;;;;;;;0.46;84.66;102620.61;1702971;83;21464;-70
2022/02/28 07:19:18;;;;;;;113.83;55.85;;;;;;;0.58;84.63;102627.22;1678995;84;21464;-71
2022/02/28 07:21:45;;;;;;;126.10;58.95;;;;;;;0.72;84.54;102629.38;1680962;84;21193;-70
2022/02/28 07:24:11;;;;;;;112.92;53.35;;;;;;;0.79;84.55;102624.32;1724201;82;20989;-71
2022/02/28 07:26:37;;;;;;;114.32;51.37;;;;;;;0.85;84.47;102630.22;1727836;82;21000;-70
2022/02/28 07:29:03;;;;;;;102.72;47.93;;;;;;;1.00;84.39;102631.45;1696858;83;21054;-70
2022/02/28 07:31:29;;;;;;;96.35;44.15;;;;;;;1.14;84.33;102632.27;1708145;83;21023;-71
2022/02/28 07:33:55;;;;;;;76.95;37.65;;;;;;;1.24;84.20;102628.39;1701466;84;21225;-71
2022/02/28 07:36:21;;;;;;;77.67;40.17;;;;;;;1.32;84.17;102628.53;1700694;84;21008;-71
2022/02/28 07:38:47;;;;;;;90.65;41.68;;;;;;;1.37;84.05;102626.58;1695459;84;21049;-71
2022/02/28 07:41:13;;;;;;;69.82;32.67;;;;;;;1.41;84.04;102629.49;1700308;82;21022;-71
2022/02/28 07:43:39;;;;;;;59.10;25.27;;;;;;;1.38;83.92;102628.30;1715397;82;20923;-70
2022/02/28 07:46:05;;;;;;;42.10;18.48;;;;;;;1.27;83.86;102623.88;1715568;83;21137;-70
2022/02/28 07:48:31;;;;;;;34.15;16.00;;;;;;;1.28;83.78;102633.50;1714847;83;21507;-70
2022/02/28 07:50:57;;;;;;;31.25;15.40;;;;;;;1.20;83.64;102628.10;1715104;83;20986;-70
2022/02/28 07:53:23;;;;;;;32.00;16.00;;;;;;;1.21;83.52;102633.31;1713048;83;21629;-70
2022/02/28 07:55:49;;;;;;;32.10;14.55;;;;;;;1.23;83.46;102636.73;1702653;84;21034;-71
2022/02/28 07:58:15;;;;;;;27.50;12.78;;;;;;;1.24;83.37;102635.83;1702993;84;21158;-70
2022/02/28 08:00:41;;;;;;;56.40;24.72;;;;;;;1.25;83.31;102640.18;1692578;82;20991;-71
2022/02/28 08:03:07;;;;;;;55.30;24.92;;;;;;;1.14;83.17;102643.64;1687881;84;21050;-71
2022/02/28 08:05:33;;;;;;;24.30;12.28;;;;;;;1.12;83.07;102649.42;1689626;83;21002;-71
2022/02/28 08:08:00;;;;;;;29.55;13.85;;;;;;;1.14;82.96;102651.53;1696126;84;21055;-71
2022/02/28 08:10:26;;;;;;;50.52;21.27;;;;;;;1.09;82.81;102649.50;1702201;83;21168;-71
2022/02/28 08:12:52;;;;;;;25.88;12.70;;;;;;;1.04;82.69;102654.53;1687594;83;21056;-70
2022/02/28 08:15:18;;;;;;;29.40;12.20;;;;;;;1.04;82.59;102654.08;1688608;84;21030;-70
2022/02/28 08:17:45;;;;;;;25.88;11.18;;;;;;;1.09;82.43;102649.50;1672254;85;21020;-70
2022/02/28 08:20:11;;;;;;;26.02;12.05;;;;;;;1.13;82.32;102658.14;1658508;85;21023;-70
2022/02/28 08:22:37;;;;;;;87.78;32.35;;;;;;;1.19;82.21;102658.80;1679721;85;21180;-71
2022/02/28 08:25:04;;;;;;;62.58;26.12;;;;;;;1.21;82.10;102654.34;1679742;85;20880;-71
2022/02/28 08:27:30;;;;;;;44.27;20.85;;;;;;;1.23;81.97;102657.75;1682211;85;21424;-71
2022/02/28 08:29:56;;;;;;;47.80;18.40;;;;;;;1.25;81.88;102658.58;1679990;85;20931;-71
2022/02/28 08:32:22;;;;;;;19.40;10.15;;;;;;;1.30;81.77;102661.88;1682337;85;21105;-71
2022/02/28 08:34:48;;;;;;;29.27;14.58;;;;;;;1.27;81.59;102656.73;1681783;85;21007;-70
2022/02/28 08:37:14;;;;;;;23.07;11.15;;;;;;;1.26;81.42;102655.05;1681694;83;20976;-71
2022/02/28 08:39:40;;;;;;;35.45;16.20;;;;;;;1.31;81.33;102666.23;1678720;84;21090;-70
2022/02/28 08:42:06;;;;;;;26.52;12.78;;;;;;;1.32;81.22;102661.38;1681762;83;21060;-71
2022/02/28 08:44:32;;;;;;;32.67;14.38;;;;;;;1.40;81.09;102662.42;1687621;83;21515;-70
2022/02/28 08:46:58;;;;;;;22.85;10.23;;;;;;;1.45;80.93;102656.08;1683552;84;21871;-71
2022/02/28 08:49:24;;;;;;;19.77;9.48;;;;;;;1.45;80.75;102663.96;1680568;85;21644;-70
2022/02/28 08:51:52;;;;;;;18.20;8.55;;;;;;;1.43;80.57;102663.17;1681964;85;21016;-70
2022/02/28 08:54:18;;;;;;;18.40;8.85;;;;;;;1.37;80.34;102662.06;1679251;85;21049;-71
2022/02/28 08:56:44;;;;;;;17.90;7.72;;;;;;;1.35;80.08;102675.73;1675380;83;21105;-70
2022/02/28 08:59:10;;;;;;;17.60;7.92;;;;;;;1.45;79.86;102670.53;1687242;83;21533;-71
2022/02/28 09:01:36;;;;;;;18.10;9.50;;;;;;;1.50;79.64;102675.18;1686593;83;21474;-71
2022/02/28 09:04:03;;;;;;;18.05;8.45;;;;;;;1.43;79.36;102677.63;1681273;83;21137;-71
2022/02/28 09:06:29;;;;;;;16.75;8.00;;;;;;;1.35;79.00;102682.75;1682153;85;21081;-70
2022/02/28 09:08:55;;;;;;;19.37;8.25;;;;;;;1.43;78.74;102675.00;1682276;84;21027;-70
2022/02/28 09:11:22;;;;;;;25.68;12.68;;;;;;;1.55;78.39;102676.79;1685577;82;21556;-70
2022/02/28 09:13:49;;;;;;;34.70;17.62;;;;;;;1.51;78.16;102679.50;1699035;82;21029;-71
2022/02/28 09:16:15;;;;;;;19.32;8.45;;;;;;;1.60;77.91;102678.77;1692002;84;21176;-70
2022/02/28 09:18:41;;;;;;;16.30;8.53;;;;;;;1.70;77.65;102676.20;1716237;83;21070;-71
2022/02/28 09:21:07;;;;;;;19.17;8.80;;;;;;;1.73;77.44;102673.45;1720443;83;21029;-71
2022/02/28 09:23:36;;;;;;;20.55;9.78;;;;;;;1.76;77.21;102670.73;1689523;84;21143;-72
2022/02/28 09:26:04;;;;;;;15.40;9.45;;;;;;;1.73;77.01;102673.45;1668418;84;21057;-71
2022/02/28 09:28:30;;;;;;;15.00;7.72;;;;;;;1.80;76.85;102670.53;1701573;83;21005;-71
2022/02/28 09:30:56;;;;;;;17.50;8.83;;;;;;;1.88;76.67;102675.51;1689308;83;21054;-71
2022/02/28 09:33:23;;;;;;;17.70;8.15;;;;;;;1.88;76.47;102670.25;1684304;84;21046;-71
2022/02/28 09:35:51;;;;;;;15.78;8.15;;;;;;;1.84;76.26;102671.27;1695362;84;21739;-71
2022/02/28 09:38:17;;;;;;;14.23;7.08;;;;;;;1.81;76.02;102670.08;1694112;84;21537;-71
2022/02/28 09:40:46;;;;;;;15.85;7.53;;;;;;;1.81;75.81;102674.03;1698456;83;21072;-70
2022/02/28 09:43:12;;;;;;;9.53;5.67;;;;;;;1.86;75.54;102673.41;1696400;82;21103;-70
2022/02/28 09:45:38;;;;;;;10.78;5.53;;;;;;;1.88;75.22;102680.77;1672160;84;21069;-71
2022/02/28 09:48:06;;;;;;;15.08;5.85;;;;;;;1.91;74.91;102675.39;1668116;84;21065;-69
2022/02/28 09:50:33;;;;;;;15.98;6.10;;;;;;;1.91;74.67;102676.70;1694703;84;20998;-69
2022/02/28 09:52:59;;;;;;;17.42;7.30;;;;;;;1.93;74.37;102682.78;1714575;83;21972;-70
2022/02/28 09:55:25;;;;;;;20.27;8.28;;;;;;;1.99;74.09;102683.85;1689882;83;21049;-70
2022/02/28 09:57:51;;;;;;;8.78;5.37;;;;;;;2.05;73.88;102678.80;1661932;86;21100;-70
2022/02/28 10:00:23;;;;;;;14.43;5.55;;;;;;;2.17;73.66;102685.77;1698891;83;21235;-70
2022/02/28 10:02:50;;;;;;;11.63;5.95;;;;;;;2.21;73.41;102678.16;1655272;84;21041;-70
2022/02/28 10:05:16;;;;;;;14.07;6.00;;;;;;;2.27;73.20;102683.63;1693694;84;21067;-70
2022/02/28 10:07:55;;;;;;;12.07;5.95;;;;;;;2.26;72.88;102680.14;1668592;84;21573;-70
2022/02/28 10:10:22;;;;;;;11.73;5.30;;;;;;;2.24;72.62;102684.62;1720038;82;21082;-70
2022/02/28 10:12:50;;;;;;;8.73;5.78;;;;;;;2.25;72.31;102681.05;1684904;83;22028;-71
2022/02/28 10:15:22;;;;;;;12.15;5.72;;;;;;;2.36;72.08;102679.30;1685376;83;20997;-70
2022/02/28 10:17:56;;;;;;;14.15;6.10;;;;;;;2.39;71.83;102679.20;1674695;85;21093;-71
2022/02/28 10:20:33;;;;;;;13.85;6.28;;;;;;;2.38;71.54;102684.06;1682920;85;21025;-70
2022/02/28 10:23:09;;;;;;;11.63;5.83;;;;;;;2.38;71.30;102680.98;1688906;83;21035;-71
2022/02/28 10:25:38;;;;;;;11.95;5.95;;;;;;;2.40;70.93;102681.76;1689912;83;21142;-70
2022/02/28 10:28:12;;;;;;;11.18;5.35;;;;;;;2.50;70.73;102681.78;1693678;83;21053;-70
2022/02/28 10:30:40;;;;;;;15.43;5.65;;;;;;;2.47;70.41;102679.28;1686650;83;21104;-70
2022/02/28 10:33:14;;;;;;;13.28;5.37;;;;;;;2.54;70.22;102693.05;1673057;85;21014;-70
2022/02/28 10:36:00;;;;;;;13.03;5.85;;;;;;;2.56;69.96;102682.47;1690183;83;21071;-70
2022/02/28 10:38:32;;;;;;;10.95;5.33;;;;;;;2.61;69.75;102683.11;1656527;86;21128;-70
2022/02/28 10:41:00;;;;;;;17.45;6.20;;;;;;;2.60;69.42;102674.84;1674940;83;21031;-70
2022/02/28 10:43:29;;;;;;;10.93;5.75;;;;;;;2.62;69.10;102689.66;1666916;84;21038;-70
2022/02/28 10:45:57;;;;;;;14.13;6.58;;;;;;;2.62;68.69;102684.84;1678724;85;21072;-69
2022/02/28 10:48:24;;;;;;;16.52;6.67;;;;;;;2.61;68.48;102677.84;1689405;83;21041;-70
2022/02/28 10:50:50;;;;;;;11.53;5.35;;;;;;;2.70;68.29;102680.13;1699970;83;22194;-69
2022/02/28 10:53:21;;;;;;;14.60;5.95;;;;;;;2.76;68.08;102677.22;1694951;83;21043;-69
2022/02/28 10:55:50;;;;;;;10.50;5.62;;;;;;;2.77;67.91;102675.00;1701861;83;21066;-70
2022/02/28 10:58:26;;;;;;;8.75;4.58;;;;;;;2.85;67.68;102679.49;1699756;83;21023;-69
2022/02/28 11:00:59;;;;;;;15.35;7.95;;;;;;;2.93;67.46;102672.09;1698312;84;21019;-70
2022/02/28 11:03:48;;;;;;;15.90;6.60;;;;;;;2.96;67.26;102664.05;1698148;84;21330;-70
2022/02/28 11:06:22;;;;;;;11.00;4.27;;;;;;;3.09;67.14;102667.90;1693733;84;21036;-69
2022/02/28 11:08:48;;;;;;;7.90;4.87;;;;;;;3.12;66.75;102669.08;1697257;84;21312;-69
2022/02/28 11:11:15;;;;;;;11.03;5.45;;;;;;;3.11;66.53;102663.41;1690248;84;21021;-69
2022/02/28 11:13:42;;;;;;;9.75;4.25;;;;;;;3.12;66.02;102676.99;1672413;84;21048;-69
2022/02/28 11:16:09;;;;;;;7.92;3.67;;;;;;;3.01;65.02;102677.91;1680716;85;21957;-69
2022/02/28 11:18:39;;;;;;;12.80;4.97;;;;;;;2.99;64.68;102669.22;1667732;85;21054;-69